createdAt,value
2023-01-09T00:01:55.832Z,97446.81
2023-01-09T00:04:22.212Z,97442.91
2023-01-09T00:06:48.561Z,97435.69
2023-01-09T00:09:14.973Z,97439.97
2023-01-09T00:11:41.294Z,97433.81
2023-01-09T00:14:08.399Z,97442.56
2023-01-09T00:16:36.254Z,97441.00
2023-01-09T00:19:02.779Z,97441.38
2023-01-09T00:21:29.133Z,97438.91
2023-01-09T00:23:55.952Z,97429.41
2023-01-09T00:26:22.460Z,97419.88
2023-01-09T00:28:51.058Z,97423.78
2023-01-09T00:31:18.602Z,97418.38
2023-01-09T00:33:52.965Z,97407.91
2023-01-09T00:36:19.405Z,97410.09
2023-01-09T00:38:45.826Z,97404.13
2023-01-09T00:41:17.070Z,97410.09
2023-01-09T00:43:49.170Z,97419.13
2023-01-09T00:46:18.167Z,97413.59
2023-01-09T00:48:47.033Z,97420.41
2023-01-09T00:51:14.009Z,97413.28
2023-01-09T00:53:42.891Z,97406.91
2023-01-09T00:56:14.917Z,97399.81
2023-01-09T00:58:41.367Z,97405.38
2023-01-09T01:01:07.982Z,97408.31
2023-01-09T01:03:34.492Z,97408.41
2023-01-09T01:06:00.855Z,97404.38
2023-01-09T01:08:27.646Z,97417.53
2023-01-09T01:10:53.996Z,97411.50
2023-01-09T01:13:20.467Z,97412.31
2023-01-09T01:15:47.156Z,97409.28
2023-01-09T01:18:14.979Z,97403.38
2023-01-09T01:20:43.441Z,97410.75
2023-01-09T01:23:09.900Z,97402.16
2023-01-09T01:25:38.574Z,97405.69
2023-01-09T01:28:06.187Z,97401.03
2023-01-09T01:30:33.578Z,97404.19
2023-01-09T01:33:00.863Z,97394.16
2023-01-09T01:35:27.155Z,97388.78
2023-01-09T01:37:53.700Z,97397.56
2023-01-09T01:40:20.359Z,97386.31
2023-01-09T01:42:51.872Z,97380.22
2023-01-09T01:45:24.331Z,97384.34
2023-01-09T01:47:59.811Z,97372.91
2023-01-09T01:50:35.290Z,97367.50
2023-01-09T01:53:21.676Z,97371.66
2023-01-09T01:56:06.321Z,97368.53
2023-01-09T01:58:36.368Z,97356.38
2023-01-09T02:01:03.172Z,97363.84
2023-01-09T02:03:30.498Z,97357.91
2023-01-09T02:05:57.361Z,97363.19
2023-01-09T02:08:23.951Z,97357.34
2023-01-09T02:10:51.783Z,97355.06
2023-01-09T02:13:19.726Z,97359.50
2023-01-09T02:16:10.227Z,97351.75
2023-01-09T02:18:54.764Z,97352.25
2023-01-09T02:21:58.593Z,97346.28
2023-01-09T02:24:47.406Z,97343.81
2023-01-09T02:27:19.914Z,97338.06
2023-01-09T02:29:49.348Z,97329.88
2023-01-09T02:32:26.149Z,97323.66
2023-01-09T02:35:10.549Z,97321.06
2023-01-09T02:38:14.927Z,97318.56
2023-01-09T02:40:52.506Z,97308.75
2023-01-09T02:43:19.856Z,97306.34
2023-01-09T02:45:46.252Z,97303.75
2023-01-09T02:48:12.736Z,97305.16
2023-01-09T02:50:51.239Z,97314.47
2023-01-09T02:53:20.335Z,97316.00
2023-01-09T02:55:58.916Z,97313.78
2023-01-09T02:59:06.021Z,97321.22
2023-01-09T03:01:54.488Z,97309.47
2023-01-09T03:04:42.119Z,97309.88
2023-01-09T03:07:19.891Z,97302.16
2023-01-09T03:09:50.992Z,97313.25
2023-01-09T03:12:21.604Z,97292.88
2023-01-09T03:14:53.433Z,97290.22
2023-01-09T03:17:27.940Z,97296.28
2023-01-09T03:19:56.771Z,97286.38
2023-01-09T03:22:23.133Z,97281.13
2023-01-09T03:24:49.539Z,97281.38
2023-01-09T03:27:16.032Z,97281.00
2023-01-09T03:29:42.440Z,97276.22
2023-01-09T03:32:09.386Z,97277.44
2023-01-09T03:34:35.695Z,97257.97
2023-01-09T03:37:02.012Z,97264.81
2023-01-09T03:39:28.488Z,97244.94
2023-01-09T03:41:54.886Z,97261.34
2023-01-09T03:44:21.195Z,97258.56
2023-01-09T03:46:47.690Z,97269.56
2023-01-09T03:49:14.306Z,97258.44
2023-01-09T03:51:40.709Z,97250.22
2023-01-09T03:54:07.023Z,97237.38
2023-01-09T03:56:33.444Z,97256.25
2023-01-09T03:58:59.837Z,97257.59
2023-01-09T04:01:26.422Z,97260.31
2023-01-09T04:03:52.809Z,97260.13
2023-01-09T04:06:19.250Z,97272.13
2023-01-09T04:08:45.910Z,97272.38
2023-01-09T04:11:12.310Z,97262.69
2023-01-09T04:13:38.653Z,97261.66
2023-01-09T04:16:06.201Z,97254.56
2023-01-09T04:18:32.635Z,97260.78
2023-01-09T04:20:59.111Z,97259.88
2023-01-09T04:23:25.592Z,97267.16
2023-01-09T04:25:52.098Z,97265.22
2023-01-09T04:28:18.471Z,97263.72
2023-01-09T04:30:45.154Z,97264.84
2023-01-09T04:33:11.561Z,97261.66
2023-01-09T04:35:38.134Z,97274.03
2023-01-09T04:38:04.564Z,97287.38
2023-01-09T04:40:30.993Z,97274.63
2023-01-09T04:42:57.354Z,97270.53
2023-01-09T04:45:23.734Z,97272.28
2023-01-09T04:47:50.174Z,97280.56
2023-01-09T04:50:16.670Z,97285.78
2023-01-09T04:52:43.192Z,97298.06
2023-01-09T04:55:09.903Z,97305.25
2023-01-09T04:57:37.084Z,97311.44
2023-01-09T05:00:05.408Z,97332.94
2023-01-09T05:02:32.095Z,97331.13
2023-01-09T05:04:58.425Z,97338.63
2023-01-09T05:07:24.790Z,97332.94
2023-01-09T05:09:51.205Z,97334.09
2023-01-09T05:12:17.620Z,97348.53
2023-01-09T05:14:44.033Z,97346.16
2023-01-09T05:17:10.688Z,97340.53
2023-01-09T05:19:37.160Z,97333.03
2023-01-09T05:22:03.505Z,97358.44
2023-01-09T05:24:30.041Z,97353.72
2023-01-09T05:26:56.433Z,97366.94
2023-01-09T05:29:22.893Z,97377.28
2023-01-09T05:31:49.385Z,97383.59
2023-01-09T05:34:15.864Z,97385.25
2023-01-09T05:36:42.352Z,97376.03
2023-01-09T05:39:08.826Z,97395.34
2023-01-09T05:41:35.164Z,97393.25
2023-01-09T05:44:01.561Z,97392.66
2023-01-09T05:46:28.140Z,97405.94
2023-01-09T05:48:54.547Z,97423.00
2023-01-09T05:51:20.951Z,97421.50
2023-01-09T05:53:47.513Z,97438.22
2023-01-09T05:56:14.085Z,97442.28
2023-01-09T05:58:40.649Z,97444.91
2023-01-09T06:01:07.516Z,97444.97
2023-01-09T06:03:34.204Z,97435.38
2023-01-09T06:06:00.644Z,97446.06
2023-01-09T06:08:27.106Z,97456.75
2023-01-09T06:10:53.404Z,97464.72
2023-01-09T06:13:19.799Z,97477.88
2023-01-09T06:15:48.170Z,97485.34
2023-01-09T06:18:14.909Z,97468.41
2023-01-09T06:20:41.325Z,97474.66
2023-01-09T06:23:08.089Z,97488.44
2023-01-09T06:25:34.476Z,97484.63
2023-01-09T06:28:00.910Z,97494.34
2023-01-09T06:30:27.286Z,97498.66
2023-01-09T06:32:53.795Z,97495.94
2023-01-09T06:35:20.189Z,97504.56
2023-01-09T06:37:48.113Z,97511.69
2023-01-09T06:40:14.819Z,97514.91
2023-01-09T06:42:45.406Z,97517.94
2023-01-09T06:45:13.250Z,97515.56
2023-01-09T06:47:40.201Z,97517.13
2023-01-09T06:50:08.324Z,97516.66
2023-01-09T06:52:35.775Z,97516.69
2023-01-09T06:55:02.216Z,97519.38
2023-01-09T06:57:28.631Z,97501.88
2023-01-09T06:59:55.046Z,97512.16
2023-01-09T07:02:22.421Z,97528.19
2023-01-09T07:04:49.164Z,97529.56
2023-01-09T07:07:15.619Z,97538.59
2023-01-09T07:09:41.963Z,97514.72
2023-01-09T07:12:08.543Z,97531.13
2023-01-09T07:14:34.961Z,97529.84
2023-01-09T07:17:01.307Z,97547.16
2023-01-09T07:19:27.828Z,97530.50
2023-01-09T07:21:54.413Z,97546.00
2023-01-09T07:24:20.954Z,97552.97
2023-01-09T07:26:47.411Z,97552.84
2023-01-09T07:29:13.820Z,97568.06
2023-01-09T07:31:40.274Z,97576.75
2023-01-09T07:34:06.766Z,97574.59
2023-01-09T07:36:33.142Z,97573.66
2023-01-09T07:38:59.661Z,97589.22
2023-01-09T07:41:26.213Z,97603.84
2023-01-09T07:43:52.743Z,97601.59
2023-01-09T07:46:19.160Z,97611.84
2023-01-09T07:48:45.539Z,97594.00
2023-01-09T07:51:12.076Z,97613.25
2023-01-09T07:53:38.373Z,97618.44
2023-01-09T07:56:05.104Z,97616.22
2023-01-09T07:58:31.646Z,97606.97
2023-01-09T08:00:58.057Z,97616.72
2023-01-09T08:03:24.923Z,97632.47
2023-01-09T08:05:51.644Z,97626.63
2023-01-09T08:08:18.166Z,97620.13
2023-01-09T08:10:44.519Z,97632.78
2023-01-09T08:13:11.129Z,97632.69
2023-01-09T08:15:37.758Z,97649.00
2023-01-09T08:18:04.481Z,97639.78
2023-01-09T08:20:30.873Z,97638.69
2023-01-09T08:22:57.267Z,97637.66
2023-01-09T08:25:24.049Z,97648.06
2023-01-09T08:27:50.760Z,97638.56
2023-01-09T08:30:18.034Z,97666.06
2023-01-09T08:32:48.738Z,97640.84
2023-01-09T08:35:15.160Z,97645.16
2023-01-09T08:37:45.194Z,97636.34
2023-01-09T08:40:13.307Z,97638.09
2023-01-09T08:42:40.096Z,97643.97
2023-01-09T08:45:07.765Z,97642.66
2023-01-09T08:47:34.225Z,97649.63
2023-01-09T08:50:01.097Z,97648.09
2023-01-09T08:52:27.476Z,97644.41
2023-01-09T08:54:53.791Z,97630.19
2023-01-09T08:57:20.264Z,97642.72
2023-01-09T08:59:46.709Z,97631.47
2023-01-09T09:02:13.150Z,97640.06
2023-01-09T09:04:39.571Z,97646.19
2023-01-09T09:07:06.008Z,97642.56
2023-01-09T09:09:32.426Z,97657.22
2023-01-09T09:11:58.799Z,97654.81
2023-01-09T09:14:25.727Z,97652.69
2023-01-09T09:16:52.789Z,97650.22
2023-01-09T09:19:19.639Z,97655.59
2023-01-09T09:21:45.968Z,97654.19
2023-01-09T09:24:12.371Z,97643.06
2023-01-09T09:26:38.742Z,97658.88
2023-01-09T09:29:05.268Z,97654.69
2023-01-09T09:31:31.873Z,97656.44
2023-01-09T09:33:58.297Z,97650.91
2023-01-09T09:36:24.887Z,97672.63
2023-01-09T09:38:52.437Z,97658.28
2023-01-09T09:41:37.571Z,97671.06
2023-01-09T09:44:29.672Z,97664.84
2023-01-09T09:47:11.901Z,97669.53
2023-01-09T09:49:57.164Z,97678.03
2023-01-09T09:52:32.405Z,97675.72
2023-01-09T09:55:05.540Z,97675.34
2023-01-09T09:57:37.293Z,97676.53
2023-01-09T10:00:06.428Z,97675.78
2023-01-09T10:02:45.492Z,97673.72
2023-01-09T10:05:18.548Z,97670.25
2023-01-09T10:07:50.055Z,97680.13
2023-01-09T10:10:29.670Z,97684.69
2023-01-09T10:12:58.995Z,97678.72
2023-01-09T10:15:36.547Z,97689.63
2023-01-09T10:18:20.824Z,97676.75
2023-01-09T10:20:59.954Z,97688.56
2023-01-09T10:23:43.009Z,97689.97
2023-01-09T10:26:29.702Z,97686.06
2023-01-09T10:29:11.508Z,97687.34
2023-01-09T10:32:07.231Z,97700.53
2023-01-09T10:34:55.473Z,97699.13
2023-01-09T10:37:28.319Z,97708.88
2023-01-09T10:40:01.810Z,97685.94
2023-01-09T10:42:39.707Z,97690.16
2023-01-09T10:45:17.495Z,97685.41
2023-01-09T10:47:44.921Z,97689.59
2023-01-09T10:50:24.039Z,97692.19
2023-01-09T10:52:53.464Z,97705.97
2023-01-09T10:55:33.529Z,97698.88
2023-01-09T10:58:03.690Z,97710.56
2023-01-09T11:00:30.075Z,97707.44
2023-01-09T11:02:58.974Z,97696.13
2023-01-09T11:05:29.197Z,97689.56
2023-01-09T11:08:09.952Z,97689.69
2023-01-09T11:10:52.050Z,97690.22
2023-01-09T11:13:26.156Z,97693.16
2023-01-09T11:16:03.174Z,97686.75
2023-01-09T11:18:29.872Z,97692.75
2023-01-09T11:20:56.310Z,97695.09
2023-01-09T11:23:31.711Z,97692.34
2023-01-09T11:25:59.810Z,97691.75
2023-01-09T11:28:26.534Z,97682.75
2023-01-09T11:31:01.548Z,97696.28
2023-01-09T11:33:39.437Z,97689.09
2023-01-09T11:36:15.825Z,97688.69
2023-01-09T11:38:50.046Z,97693.63
2023-01-09T11:41:22.488Z,97691.72
2023-01-09T11:43:51.494Z,97690.94
2023-01-09T11:46:39.280Z,97685.16
2023-01-09T11:49:21.642Z,97692.31
2023-01-09T11:52:17.369Z,97692.84
2023-01-09T11:54:57.598Z,97690.88
2023-01-09T11:57:25.068Z,97676.25
2023-01-09T11:59:51.641Z,97681.09
2023-01-09T12:02:38.804Z,97685.91
2023-01-09T12:05:28.523Z,97688.38
2023-01-09T12:08:06.593Z,97675.94
2023-01-09T12:10:55.057Z,97692.19
2023-01-09T12:13:51.380Z,97677.72
2023-01-09T12:16:29.637Z,97672.41
2023-01-09T12:19:17.955Z,97681.66
2023-01-09T12:22:00.836Z,97673.63
2023-01-09T12:24:43.837Z,97683.03
2023-01-09T12:27:48.681Z,97701.44
2023-01-09T12:30:21.592Z,97696.53
2023-01-09T12:32:56.922Z,97693.09
2023-01-09T12:36:01.158Z,97690.34
2023-01-09T12:38:35.839Z,97694.34
2023-01-09T12:41:13.220Z,97705.72
2023-01-09T12:44:05.501Z,97688.41
2023-01-09T12:46:47.518Z,97694.84
2023-01-09T12:49:27.941Z,97701.53
2023-01-09T12:52:03.628Z,97715.09
2023-01-09T12:54:48.322Z,97711.06
2023-01-09T12:57:37.617Z,97699.16
2023-01-09T13:00:15.984Z,97700.75
2023-01-09T13:02:46.593Z,97698.53
2023-01-09T13:05:23.751Z,97693.66
2023-01-09T13:08:13.197Z,97692.22
2023-01-09T13:10:43.083Z,97692.69
2023-01-09T13:13:20.818Z,97684.63
2023-01-09T13:16:04.406Z,97678.88
2023-01-09T13:18:45.040Z,97682.41
2023-01-09T13:21:13.768Z,97676.59
2023-01-09T13:23:52.225Z,97672.47
2023-01-09T13:26:26.809Z,97679.34
2023-01-09T13:28:59.189Z,97667.53
2023-01-09T13:31:58.004Z,97691.03
2023-01-09T13:34:28.016Z,97681.19
2023-01-09T13:36:56.461Z,97688.16
2023-01-09T13:39:26.445Z,97683.69
2023-01-09T13:41:58.123Z,97692.84
2023-01-09T13:44:26.942Z,97690.91
2023-01-09T13:46:57.092Z,97700.63
2023-01-09T13:49:32.965Z,97694.72
2023-01-09T13:52:01.685Z,97708.50
2023-01-09T13:54:46.749Z,97725.09
2023-01-09T13:57:19.294Z,97731.81
2023-01-09T13:59:49.550Z,97739.56
2023-01-09T14:02:34.510Z,97737.94
2023-01-09T14:05:03.694Z,97738.38
2023-01-09T14:07:35.116Z,97746.59
2023-01-09T14:10:06.007Z,97730.78
2023-01-09T14:12:39.859Z,97739.47
2023-01-09T14:15:18.890Z,97751.50
2023-01-09T14:17:45.450Z,97742.06
2023-01-09T14:20:27.839Z,97755.81
2023-01-09T14:23:18.140Z,97759.56
2023-01-09T14:25:45.021Z,97762.31
2023-01-09T14:28:25.636Z,97773.66
2023-01-09T14:30:54.998Z,97780.94
2023-01-09T14:33:21.482Z,97783.72
2023-01-09T14:36:15.963Z,97789.03
2023-01-09T14:38:53.199Z,97791.06
2023-01-09T14:41:32.005Z,97803.38
2023-01-09T14:44:06.494Z,97810.09
2023-01-09T14:46:38.414Z,97807.69
2023-01-09T14:49:39.317Z,97812.19
2023-01-09T14:52:20.305Z,97817.25
2023-01-09T14:54:49.081Z,97820.94
2023-01-09T14:57:30.816Z,97830.44
2023-01-09T15:00:15.705Z,97826.28
2023-01-09T15:02:44.048Z,97825.78
2023-01-09T15:05:14.168Z,97836.66
2023-01-09T15:07:49.419Z,97852.22
2023-01-09T15:10:21.340Z,97853.81
2023-01-09T15:12:50.398Z,97840.13
2023-01-09T15:15:18.368Z,97844.81
2023-01-09T15:17:50.281Z,97850.28
2023-01-09T15:20:23.002Z,97854.66
2023-01-09T15:22:51.186Z,97863.53
2023-01-09T15:25:40.427Z,97866.75
2023-01-09T15:28:33.165Z,97868.19
2023-01-09T15:31:12.492Z,97870.81
2023-01-09T15:33:40.592Z,97867.44
2023-01-09T15:36:28.132Z,97878.56
2023-01-09T15:38:54.952Z,97872.78
2023-01-09T15:41:27.265Z,97879.16
2023-01-09T15:43:53.968Z,97868.09
2023-01-09T15:46:20.473Z,97871.97
2023-01-09T15:48:53.980Z,97884.59
2023-01-09T15:51:20.914Z,97884.72
2023-01-09T15:53:48.624Z,97879.47
2023-01-09T15:56:26.538Z,97875.72
2023-01-09T15:58:54.662Z,97888.50
2023-01-09T16:01:30.113Z,97893.66
2023-01-09T16:04:17.294Z,97907.50
2023-01-09T16:06:47.039Z,97898.22
2023-01-09T16:09:29.752Z,97917.00
2023-01-09T16:12:04.129Z,97913.88
2023-01-09T16:14:33.190Z,97912.47
2023-01-09T16:17:03.724Z,97922.84
2023-01-09T16:19:49.693Z,97907.03
2023-01-09T16:22:26.491Z,97917.28
2023-01-09T16:24:54.536Z,97907.41
2023-01-09T16:27:34.006Z,97918.59
2023-01-09T16:30:26.525Z,97936.06
2023-01-09T16:32:52.844Z,97934.50
2023-01-09T16:35:28.726Z,97950.09
2023-01-09T16:37:55.170Z,97956.28
2023-01-09T16:40:25.940Z,97964.50
2023-01-09T16:42:58.268Z,97971.34
2023-01-09T16:45:26.595Z,97974.72
2023-01-09T16:47:53.197Z,97971.03
2023-01-09T16:50:19.555Z,97981.72
2023-01-09T16:52:47.332Z,97992.41
2023-01-09T16:55:14.320Z,98011.75
2023-01-09T16:57:40.762Z,98010.22
2023-01-09T17:00:13.747Z,98032.09
2023-01-09T17:02:40.466Z,98026.44
2023-01-09T17:05:07.232Z,98026.41
2023-01-09T17:07:34.072Z,98025.91
2023-01-09T17:10:00.742Z,98033.09
2023-01-09T17:12:27.073Z,98032.16
2023-01-09T17:14:53.727Z,98027.97
2023-01-09T17:17:20.432Z,98044.00
2023-01-09T17:19:47.060Z,98048.41
2023-01-09T17:22:14.077Z,98061.25
2023-01-09T17:24:40.566Z,98056.97
2023-01-09T17:27:09.720Z,98059.25
2023-01-09T17:29:36.747Z,98055.78
2023-01-09T17:32:03.552Z,98063.31
2023-01-09T17:34:30.170Z,98074.78
2023-01-09T17:36:57.112Z,98061.16
2023-01-09T17:39:23.508Z,98077.47
2023-01-09T17:41:49.867Z,98080.94
2023-01-09T17:44:16.257Z,98089.84
2023-01-09T17:46:44.741Z,98097.56
2023-01-09T17:49:16.975Z,98097.09
2023-01-09T17:51:43.493Z,98104.63
2023-01-09T17:54:10.548Z,98100.91
2023-01-09T17:56:39.230Z,98105.50
2023-01-09T17:59:05.862Z,98100.56
2023-01-09T18:01:32.268Z,98116.63
2023-01-09T18:03:58.680Z,98107.41
2023-01-09T18:06:25.193Z,98107.53
2023-01-09T18:08:51.513Z,98114.34
2023-01-09T18:11:20.413Z,98115.97
2023-01-09T18:13:48.201Z,98106.50
2023-01-09T18:16:17.169Z,98112.44
2023-01-09T18:18:43.978Z,98116.13
2023-01-09T18:21:14.556Z,98113.81
2023-01-09T18:23:41.274Z,98118.56
2023-01-09T18:26:08.629Z,98131.09
2023-01-09T18:28:39.030Z,98145.34
2023-01-09T18:31:06.455Z,98143.75
2023-01-09T18:33:33.141Z,98139.53
2023-01-09T18:36:07.398Z,98147.84
2023-01-09T18:38:33.889Z,98152.03
2023-01-09T18:41:01.916Z,98164.63
2023-01-09T18:43:28.967Z,98163.84
2023-01-09T18:45:55.535Z,98177.09
2023-01-09T18:48:22.134Z,98181.19
2023-01-09T18:50:48.569Z,98186.69
2023-01-09T18:53:15.228Z,98188.72
2023-01-09T18:55:41.624Z,98200.41
2023-01-09T18:58:08.063Z,98189.53
2023-01-09T19:00:34.651Z,98202.47
2023-01-09T19:03:00.969Z,98204.69
2023-01-09T19:05:27.356Z,98205.81
2023-01-09T19:07:53.712Z,98202.97
2023-01-09T19:10:20.233Z,98209.03
2023-01-09T19:12:46.852Z,98210.06
2023-01-09T19:15:13.209Z,98218.75
2023-01-09T19:17:40.224Z,98230.75
2023-01-09T19:20:07.655Z,98229.38
2023-01-09T19:22:34.125Z,98242.25
2023-01-09T19:25:00.532Z,98247.66
2023-01-09T19:27:29.347Z,98246.06
2023-01-09T19:29:56.016Z,98249.31
2023-01-09T19:32:22.701Z,98257.22
2023-01-09T19:34:50.064Z,98260.13
2023-01-09T19:37:16.421Z,98260.03
2023-01-09T19:39:42.813Z,98268.41
2023-01-09T19:42:09.430Z,98267.63
2023-01-09T19:44:35.745Z,98268.59
2023-01-09T19:47:02.448Z,98274.53
2023-01-09T19:49:28.894Z,98279.56
2023-01-09T19:51:55.435Z,98278.19
2023-01-09T19:54:21.824Z,98281.50
2023-01-09T19:56:48.180Z,98284.75
2023-01-09T19:59:14.577Z,98280.38
2023-01-09T20:01:41.826Z,98295.47
2023-01-09T20:04:10.652Z,98292.19
2023-01-09T20:06:40.326Z,98299.34
2023-01-09T20:09:07.036Z,98310.94
2023-01-09T20:11:34.380Z,98324.97
2023-01-09T20:14:01.160Z,98320.91
2023-01-09T20:16:29.982Z,98311.84
2023-01-09T20:18:58.129Z,98318.13
2023-01-09T20:21:26.281Z,98313.56
2023-01-09T20:23:55.350Z,98329.41
2023-01-09T20:26:22.746Z,98327.66
2023-01-09T20:28:49.278Z,98345.84
2023-01-09T20:31:18.429Z,98347.53
2023-01-09T20:33:48.983Z,98358.91
2023-01-09T20:36:15.642Z,98349.00
2023-01-09T20:38:43.881Z,98361.25
2023-01-09T20:41:15.394Z,98362.53
2023-01-09T20:43:41.941Z,98365.91
2023-01-09T20:46:08.661Z,98366.66
2023-01-09T20:48:35.020Z,98370.75
2023-01-09T20:51:06.688Z,98381.94
2023-01-09T20:53:33.465Z,98388.75
2023-01-09T20:56:07.425Z,98371.28
2023-01-09T20:58:34.303Z,98393.97
2023-01-09T21:01:09.025Z,98391.53
2023-01-09T21:03:35.531Z,98391.38
2023-01-09T21:06:06.663Z,98393.31
2023-01-09T21:08:33.888Z,98386.91
2023-01-09T21:11:00.525Z,98388.91
2023-01-09T21:13:27.657Z,98388.38
2023-01-09T21:15:54.308Z,98385.47
2023-01-09T21:18:20.671Z,98402.63
2023-01-09T21:20:47.096Z,98409.72
2023-01-09T21:23:13.393Z,98415.97
2023-01-09T21:25:40.802Z,98413.34
2023-01-09T21:28:07.518Z,98428.16
2023-01-09T21:30:34.354Z,98430.19
2023-01-09T21:33:00.859Z,98422.75
2023-01-09T21:35:27.409Z,98441.34
2023-01-09T21:37:53.798Z,98416.50
2023-01-09T21:40:20.179Z,98438.22
2023-01-09T21:42:46.587Z,98442.59
2023-01-09T21:45:14.767Z,98447.81
2023-01-09T21:47:41.197Z,98448.66
2023-01-09T21:50:08.236Z,98453.50
2023-01-09T21:52:36.138Z,98455.47
2023-01-09T21:55:02.548Z,98458.09
2023-01-09T21:57:29.267Z,98470.16
2023-01-09T21:59:55.653Z,98477.63
2023-01-09T22:02:22.023Z,98483.94
2023-01-09T22:04:48.563Z,98489.75
2023-01-09T22:07:15.827Z,98503.84
2023-01-09T22:09:42.238Z,98503.00
2023-01-09T22:12:08.734Z,98497.16
2023-01-09T22:14:35.212Z,98505.09
2023-01-09T22:17:01.617Z,98514.13
2023-01-09T22:19:28.298Z,98512.00
2023-01-09T22:21:54.715Z,98518.88
2023-01-09T22:24:21.153Z,98530.66
2023-01-09T22:26:47.953Z,98522.03
2023-01-09T22:29:14.830Z,98534.53
2023-01-09T22:31:41.376Z,98541.91
2023-01-09T22:34:10.428Z,98543.44
2023-01-09T22:36:36.919Z,98544.81
2023-01-09T22:39:03.757Z,98553.31
2023-01-09T22:41:30.711Z,98563.38
2023-01-09T22:43:57.460Z,98566.63
2023-01-09T22:46:24.455Z,98565.72
2023-01-09T22:48:51.160Z,98564.09
2023-01-09T22:51:20.393Z,98574.19
2023-01-09T22:53:47.349Z,98571.28
2023-01-09T22:56:16.286Z,98589.13
2023-01-09T22:58:42.958Z,98596.41
2023-01-09T23:01:12.844Z,98603.47
2023-01-09T23:03:40.049Z,98599.41
2023-01-09T23:06:11.082Z,98600.09
2023-01-09T23:08:37.771Z,98611.28
2023-01-09T23:11:08.163Z,98617.31
2023-01-09T23:13:34.508Z,98613.16
2023-01-09T23:16:00.899Z,98611.28
2023-01-09T23:18:27.350Z,98626.41
2023-01-09T23:20:57.323Z,98628.53
2023-01-09T23:23:24.772Z,98625.13
2023-01-09T23:25:57.377Z,98628.63
2023-01-09T23:28:25.474Z,98629.44
2023-01-09T23:30:52.260Z,98642.31
2023-01-09T23:33:19.732Z,98649.72
2023-01-09T23:35:46.048Z,98649.31
2023-01-09T23:38:12.631Z,98656.66
2023-01-09T23:40:40.562Z,98661.50
2023-01-09T23:43:07.659Z,98661.00
2023-01-09T23:45:34.030Z,98657.78
2023-01-09T23:48:00.456Z,98665.19
2023-01-09T23:50:26.911Z,98681.47
2023-01-09T23:52:53.264Z,98671.88
2023-01-09T23:55:19.587Z,98679.38
2023-01-09T23:57:46.009Z,98685.22
